createdAt,value
2018-02-15T00:00:34.062Z,96.40
2018-02-15T00:03:02.376Z,96.50
2018-02-15T00:05:30.696Z,96.20
2018-02-15T00:07:59.045Z,96.40
2018-02-15T00:10:28.084Z,95.90
2018-02-15T00:12:56.339Z,95.90
2018-02-15T00:15:24.570Z,95.70
2018-02-15T00:17:52.857Z,95.40
2018-02-15T00:20:22.717Z,95.70
2018-02-15T00:22:51.364Z,95.70
2018-02-15T00:25:19.585Z,95.50
2018-02-15T00:27:47.839Z,94.70
2018-02-15T00:30:16.914Z,94.40
2018-02-15T00:32:45.956Z,94.30
2018-02-15T00:35:14.823Z,94.30
2018-02-15T00:37:43.234Z,94.40
2018-02-15T00:40:11.484Z,93.80
2018-02-15T00:42:39.761Z,94.00
2018-02-15T00:45:08.797Z,93.90
2018-02-15T00:47:37.050Z,93.80
2018-02-15T00:50:05.308Z,93.60
2018-02-15T00:52:33.564Z,93.30
2018-02-15T00:55:02.577Z,93.00
2018-02-15T00:57:30.998Z,93.00
2018-02-15T00:59:59.234Z,92.90
2018-02-15T01:02:28.326Z,92.80
2018-02-15T01:04:56.639Z,92.80
2018-02-15T01:07:25.766Z,92.90
2018-02-15T01:09:54.805Z,93.00
2018-02-15T01:12:23.087Z,93.00
2018-02-15T01:14:51.334Z,93.10
2018-02-15T01:17:19.638Z,93.30
2018-02-15T01:19:48.656Z,93.10
2018-02-15T01:22:17.586Z,93.10
2018-02-15T01:24:45.841Z,92.90
2018-02-15T01:27:14.136Z,92.90
2018-02-15T01:29:42.389Z,92.90
2018-02-15T01:32:10.635Z,93.20
2018-02-15T01:34:38.929Z,93.20
2018-02-15T01:37:08.706Z,93.00
2018-02-15T01:39:36.976Z,92.80
2018-02-15T01:42:06.001Z,93.10
2018-02-15T01:44:34.271Z,93.00
2018-02-15T01:47:02.587Z,93.10
2018-02-15T01:49:30.904Z,93.50
2018-02-15T01:51:59.954Z,93.00
2018-02-15T01:54:28.222Z,93.00
2018-02-15T01:56:56.465Z,93.20
2018-02-15T01:59:25.463Z,92.70
2018-02-15T02:01:54.497Z,92.10
2018-02-15T02:04:22.727Z,92.00
2018-02-15T02:06:51.773Z,92.00
2018-02-15T02:09:20.043Z,92.00
2018-02-15T02:11:48.297Z,91.60
2018-02-15T02:14:16.550Z,91.40
2018-02-15T02:16:51.993Z,91.50
2018-02-15T02:19:21.842Z,91.50
2018-02-15T02:21:55.612Z,91.20
2018-02-15T02:27:31.386Z,90.90
2018-02-15T02:29:59.759Z,90.90
2018-02-15T02:32:28.007Z,90.70
2018-02-15T02:34:56.251Z,90.40
2018-02-15T02:37:24.531Z,90.40
2018-02-15T02:39:52.805Z,90.70
2018-02-15T02:42:21.133Z,89.80
2018-02-15T02:44:49.414Z,90.00
2018-02-15T02:47:17.683Z,89.80
2018-02-15T02:49:45.930Z,88.90
2018-02-15T02:52:14.198Z,89.20
2018-02-15T02:54:42.449Z,89.60
2018-02-15T02:57:11.715Z,90.10
2018-02-15T02:59:39.950Z,90.10
2018-02-15T03:02:08.228Z,90.20
2018-02-15T03:04:36.553Z,90.00
2018-02-15T03:07:04.784Z,90.10
2018-02-15T03:09:33.127Z,90.00
2018-02-15T03:12:01.386Z,90.60
2018-02-15T03:14:29.640Z,90.50
2018-02-15T03:16:57.904Z,90.10
2018-02-15T03:19:27.923Z,89.70
2018-02-15T03:21:56.189Z,89.90
2018-02-15T03:24:24.450Z,89.20
2018-02-15T03:26:52.713Z,88.70
2018-02-15T03:29:21.770Z,90.00
2018-02-15T03:31:50.067Z,89.40
2018-02-15T03:34:18.325Z,89.00
2018-02-15T03:36:46.609Z,90.00
2018-02-15T03:39:14.864Z,90.20
2018-02-15T03:41:44.041Z,90.70
2018-02-15T03:44:14.169Z,91.30
2018-02-15T03:46:42.444Z,91.30
2018-02-15T03:49:10.698Z,91.50
2018-02-15T03:51:39.730Z,91.50
2018-02-15T03:54:08.016Z,91.50
2018-02-15T03:56:36.290Z,91.30
2018-02-15T03:59:04.569Z,91.30
2018-02-15T04:01:32.815Z,91.60
2018-02-15T04:04:01.813Z,91.30
2018-02-15T04:06:30.083Z,91.20
2018-02-15T04:08:59.090Z,91.30
2018-02-15T04:11:27.366Z,91.30
2018-02-15T04:13:55.642Z,91.20
2018-02-15T04:16:24.640Z,91.50
2018-02-15T04:18:52.914Z,91.50
2018-02-15T04:21:21.168Z,91.70
2018-02-15T04:23:50.195Z,91.80
2018-02-15T04:26:18.437Z,91.70
2018-02-15T04:28:47.482Z,91.20
2018-02-15T04:31:15.774Z,91.20
2018-02-15T04:33:44.042Z,91.10
2018-02-15T04:36:12.342Z,91.00
2018-02-15T04:38:40.549Z,91.30
2018-02-15T04:41:09.156Z,91.30
2018-02-15T04:43:38.324Z,92.10
2018-02-15T04:46:06.557Z,92.10
2018-02-15T04:48:35.529Z,92.10
2018-02-15T04:51:03.790Z,92.40
2018-02-15T04:53:32.812Z,93.10
2018-02-15T04:56:01.053Z,93.10
2018-02-15T04:58:29.316Z,93.60
2018-02-15T05:00:57.555Z,93.60
2018-02-15T05:03:25.842Z,93.60
2018-02-15T05:05:54.086Z,93.60
2018-02-15T05:08:22.346Z,93.90
2018-02-15T05:10:50.635Z,94.70
2018-02-15T05:13:18.925Z,95.00
2018-02-15T05:15:47.184Z,95.50
2018-02-15T05:18:16.273Z,95.80
2018-02-15T05:20:44.498Z,96.70
2018-02-15T05:23:13.448Z,97.60
2018-02-15T05:25:42.474Z,99.60
2018-02-15T05:28:10.753Z,99.60
2018-02-15T05:30:39.019Z,99.90
2018-02-15T05:33:07.262Z,99.90
2018-02-15T05:35:36.294Z,99.90
2018-02-15T05:38:04.550Z,99.90
2018-02-15T05:40:32.848Z,99.90
2018-02-15T05:43:01.095Z,99.90
2018-02-15T05:45:30.140Z,99.90
2018-02-15T05:47:58.388Z,99.90
2018-02-15T05:50:27.386Z,99.90
2018-02-15T05:52:55.692Z,99.90
2018-02-15T05:55:23.977Z,99.90
2018-02-15T05:57:52.226Z,99.90
2018-02-15T06:00:20.522Z,99.90
2018-02-15T06:02:48.815Z,99.90
2018-02-15T06:05:17.088Z,99.90
2018-02-15T06:07:45.386Z,99.90
2018-02-15T06:10:13.629Z,99.90
2018-02-15T06:12:41.927Z,99.90
2018-02-15T06:15:10.189Z,99.90
2018-02-15T06:17:38.495Z,99.90
2018-02-15T06:20:06.837Z,99.90
2018-02-15T06:22:35.102Z,99.90
2018-02-15T06:25:04.195Z,99.90
2018-02-15T06:27:32.462Z,99.90
2018-02-15T06:30:01.511Z,99.90
2018-02-15T06:32:29.765Z,99.90
2018-02-15T06:34:58.069Z,99.90
2018-02-15T06:37:26.318Z,99.90
2018-02-15T06:39:54.610Z,99.90
2018-02-15T06:42:22.855Z,99.90
2018-02-15T06:44:51.485Z,99.90
2018-02-15T06:47:19.746Z,99.90
2018-02-15T06:49:48.025Z,99.90
2018-02-15T06:52:16.262Z,99.90
2018-02-15T06:54:44.611Z,99.90
2018-02-15T06:57:12.902Z,99.90
2018-02-15T06:59:41.946Z,99.90
2018-02-15T07:02:10.284Z,99.90
2018-02-15T07:04:39.329Z,99.90
2018-02-15T07:07:07.618Z,99.90
2018-02-15T07:09:35.927Z,99.90
2018-02-15T07:12:04.192Z,99.90
2018-02-15T07:14:32.422Z,99.90
2018-02-15T07:17:00.695Z,99.90
2018-02-15T07:19:28.938Z,99.90
2018-02-15T07:21:57.975Z,99.90
2018-02-15T07:24:26.246Z,99.90
2018-02-15T07:26:54.475Z,99.90
2018-02-15T07:29:23.521Z,99.90
2018-02-15T07:31:51.808Z,99.90
2018-02-15T07:34:20.125Z,99.90
2018-02-15T07:36:49.125Z,99.90
2018-02-15T07:39:18.181Z,99.90
2018-02-15T07:41:46.474Z,99.90
2018-02-15T07:44:14.721Z,99.90
2018-02-15T07:46:43.007Z,99.90
2018-02-15T07:49:11.268Z,99.90
2018-02-15T07:51:39.537Z,99.90
2018-02-15T07:54:08.577Z,99.90
2018-02-15T07:56:36.829Z,99.90
2018-02-15T07:59:05.112Z,99.90
2018-02-15T08:01:33.368Z,99.90
2018-02-15T08:04:01.721Z,99.90
2018-02-15T08:06:29.905Z,99.90
2018-02-15T08:08:58.181Z,99.90
2018-02-15T08:11:27.185Z,99.90
2018-02-15T08:13:55.454Z,99.90
2018-02-15T08:16:24.480Z,99.90
2018-02-15T08:18:52.775Z,99.90
2018-02-15T08:21:21.034Z,99.90
2018-02-15T08:23:49.313Z,99.90
2018-02-15T08:26:17.576Z,99.90
2018-02-15T08:28:45.852Z,99.90
2018-02-15T08:31:14.121Z,99.90
2018-02-15T08:33:42.406Z,99.90
2018-02-15T08:36:10.658Z,99.90
2018-02-15T08:38:39.694Z,99.90
2018-02-15T08:41:07.984Z,99.90
2018-02-15T08:43:36.230Z,99.90
2018-02-15T08:46:04.534Z,99.90
2018-02-15T08:48:32.795Z,99.90
2018-02-15T08:51:01.064Z,99.90
2018-02-15T08:53:29.348Z,99.90
2018-02-15T08:55:57.597Z,99.90
2018-02-15T08:58:26.636Z,99.90
2018-02-15T09:00:55.454Z,99.90
2018-02-15T09:03:23.846Z,99.90
2018-02-15T09:05:52.092Z,99.90
2018-02-15T09:08:20.404Z,99.90
2018-02-15T09:10:48.669Z,99.90
2018-02-15T09:13:16.930Z,99.90
2018-02-15T09:15:45.186Z,99.90
2018-02-15T09:18:13.485Z,99.90
2018-02-15T09:20:41.732Z,99.90
2018-02-15T09:23:09.981Z,99.90
2018-02-15T09:25:39.025Z,99.90
2018-02-15T09:28:07.299Z,99.90
2018-02-15T09:30:35.583Z,99.90
2018-02-15T09:33:03.844Z,99.90
2018-02-15T09:35:32.128Z,99.90
2018-02-15T09:38:00.391Z,99.90
2018-02-15T09:40:28.640Z,99.90
2018-02-15T09:42:57.670Z,99.90
2018-02-15T09:45:25.921Z,99.90
2018-02-15T09:47:55.578Z,99.90
2018-02-15T09:50:23.814Z,99.90
2018-02-15T09:52:53.190Z,99.90
2018-02-15T09:55:21.443Z,99.90
2018-02-15T09:57:49.759Z,99.90
2018-02-15T10:00:18.038Z,99.90
2018-02-15T10:02:47.794Z,99.90
2018-02-15T10:05:16.048Z,99.90
2018-02-15T10:07:44.287Z,99.90
2018-02-15T10:10:14.043Z,99.90
2018-02-15T10:12:42.339Z,99.90
2018-02-15T10:15:10.577Z,99.90
2018-02-15T10:17:39.608Z,99.90
2018-02-15T10:20:08.439Z,99.90
2018-02-15T10:22:37.031Z,99.90
2018-02-15T10:25:06.805Z,99.90
2018-02-15T10:27:35.045Z,99.90
2018-02-15T10:30:03.277Z,99.90
2018-02-15T10:32:31.541Z,99.90
2018-02-15T10:34:59.819Z,99.90
2018-02-15T10:37:28.068Z,99.90
2018-02-15T10:39:56.328Z,99.90
2018-02-15T10:42:24.546Z,99.90
2018-02-15T10:44:52.840Z,99.90
2018-02-15T10:47:21.097Z,99.90
2018-02-15T10:49:49.373Z,99.90
2018-02-15T10:52:17.640Z,99.90
2018-02-15T10:54:45.886Z,99.90
2018-02-15T10:57:14.930Z,99.90
2018-02-15T10:59:43.207Z,99.90
2018-02-15T11:02:17.215Z,99.90
2018-02-15T11:04:51.067Z,99.90
2018-02-15T11:07:19.357Z,99.90
2018-02-15T11:09:48.388Z,99.90
2018-02-15T11:12:16.620Z,99.90
2018-02-15T11:14:46.395Z,99.90
2018-02-15T11:17:14.603Z,99.90
2018-02-15T11:19:42.868Z,99.90
2018-02-15T11:22:11.149Z,99.90
2018-02-15T11:24:40.480Z,99.90
2018-02-15T11:27:09.501Z,99.90
2018-02-15T11:29:37.809Z,99.90
2018-02-15T11:32:06.069Z,99.90
2018-02-15T11:34:34.302Z,99.90
2018-02-15T11:37:03.338Z,99.90
2018-02-15T11:39:31.637Z,99.90
2018-02-15T11:41:59.917Z,99.90
2018-02-15T11:44:28.190Z,99.90
2018-02-15T11:46:56.439Z,99.90
2018-02-15T11:49:24.800Z,99.90
2018-02-15T11:51:53.851Z,99.90
2018-02-15T11:54:22.128Z,99.90
2018-02-15T11:56:51.917Z,99.90
2018-02-15T11:59:20.176Z,99.90
2018-02-15T12:01:49.122Z,99.90
2018-02-15T12:04:17.366Z,99.90
2018-02-15T12:06:45.619Z,99.90
2018-02-15T12:09:13.858Z,99.90
2018-02-15T12:11:42.130Z,99.90
2018-02-15T12:14:10.712Z,99.90
2018-02-15T12:16:38.979Z,99.90
2018-02-15T12:19:07.233Z,99.90
2018-02-15T12:21:35.480Z,99.90
2018-02-15T12:24:03.747Z,99.90
2018-02-15T12:26:32.786Z,99.90
2018-02-15T12:29:01.077Z,99.90
2018-02-15T12:31:29.325Z,99.90
2018-02-15T12:33:57.581Z,99.90
2018-02-15T12:36:25.873Z,99.90
2018-02-15T12:38:54.133Z,99.90
2018-02-15T12:41:22.573Z,99.90
2018-02-15T12:43:50.834Z,99.90
2018-02-15T12:46:19.096Z,99.90
2018-02-15T12:48:47.347Z,99.90
2018-02-15T12:51:16.387Z,99.90
2018-02-15T12:53:44.667Z,99.90
2018-02-15T12:56:12.975Z,99.90
2018-02-15T12:58:41.232Z,99.90
2018-02-15T13:01:09.463Z,99.90
2018-02-15T13:03:37.717Z,99.90
2018-02-15T13:06:06.738Z,99.90
2018-02-15T13:08:35.772Z,99.90
2018-02-15T13:11:04.014Z,99.90
2018-02-15T13:13:32.876Z,99.90
2018-02-15T13:16:13.755Z,99.90
2018-02-15T13:18:42.776Z,99.90
2018-02-15T13:21:11.043Z,99.90
2018-02-15T13:23:39.310Z,99.90
2018-02-15T13:26:08.348Z,99.90
2018-02-15T13:28:38.077Z,99.90
2018-02-15T13:31:06.357Z,99.90
2018-02-15T13:33:34.600Z,99.90
2018-02-15T13:36:02.890Z,99.90
2018-02-15T13:38:31.194Z,99.90
2018-02-15T13:40:59.443Z,99.90
2018-02-15T13:43:27.691Z,99.90
2018-02-15T13:45:56.706Z,99.90
2018-02-15T13:48:25.036Z,99.90
2018-02-15T13:50:53.300Z,99.90
2018-02-15T13:53:21.528Z,99.90
2018-02-15T13:55:49.760Z,99.90
2018-02-15T13:58:18.100Z,99.90
2018-02-15T14:00:46.334Z,99.90
2018-02-15T14:03:15.406Z,99.90
2018-02-15T14:05:43.673Z,99.90
2018-02-15T14:08:11.914Z,99.90
2018-02-15T14:10:40.175Z,99.90
2018-02-15T14:13:08.402Z,99.90
2018-02-15T14:15:36.706Z,99.90
2018-02-15T14:18:04.929Z,99.90
2018-02-15T14:20:33.259Z,99.90
2018-02-15T14:23:01.506Z,99.90
2018-02-15T14:25:29.775Z,99.90
2018-02-15T14:27:58.086Z,99.90
2018-02-15T14:30:26.296Z,99.90
2018-02-15T14:32:55.306Z,99.90
2018-02-15T14:35:23.537Z,99.90
2018-02-15T14:37:52.599Z,99.90
2018-02-15T14:40:20.897Z,99.90
2018-02-15T14:42:49.293Z,99.90
2018-02-15T14:45:17.537Z,99.90
2018-02-15T14:47:45.824Z,99.90
2018-02-15T14:50:14.087Z,99.90
2018-02-15T14:52:42.346Z,99.90
2018-02-15T14:55:10.659Z,99.90
2018-02-15T14:57:38.921Z,99.90
2018-02-15T15:00:07.171Z,99.90
2018-02-15T15:02:35.448Z,99.90
2018-02-15T15:05:03.709Z,99.90
2018-02-15T15:07:32.716Z,99.90
2018-02-15T15:10:01.027Z,99.90
2018-02-15T15:12:29.266Z,99.90
2018-02-15T15:14:58.303Z,99.90
2018-02-15T15:17:26.612Z,99.90
2018-02-15T15:19:54.846Z,99.90
2018-02-15T15:22:23.122Z,99.90
2018-02-15T15:24:52.284Z,99.90
2018-02-15T15:27:20.534Z,99.90
2018-02-15T15:29:48.799Z,99.90
2018-02-15T15:32:18.266Z,99.90
2018-02-15T15:34:46.639Z,99.90
2018-02-15T15:37:15.647Z,99.90
2018-02-15T15:39:43.917Z,99.90
2018-02-15T15:42:12.173Z,99.90
2018-02-15T15:44:41.228Z,99.90
2018-02-15T15:47:09.497Z,99.90
2018-02-15T15:49:38.462Z,99.90
2018-02-15T15:52:07.471Z,99.90
2018-02-15T15:54:35.796Z,99.90
2018-02-15T15:57:04.205Z,99.90
2018-02-15T15:59:32.564Z,99.90
2018-02-15T16:02:01.592Z,99.90
2018-02-15T16:04:30.605Z,99.90
2018-02-15T16:06:58.886Z,99.90
2018-02-15T16:09:27.151Z,99.90
2018-02-15T16:11:55.434Z,99.90
2018-02-15T16:14:24.444Z,99.90
2018-02-15T16:16:52.702Z,99.90
2018-02-15T16:19:20.944Z,99.90
2018-02-15T16:21:49.984Z,99.90
2018-02-15T16:24:18.297Z,99.90
2018-02-15T16:26:47.376Z,99.90
2018-02-15T16:29:15.708Z,99.90
2018-02-15T16:31:44.761Z,99.90
2018-02-15T16:34:12.985Z,99.90
2018-02-15T16:36:41.292Z,99.90
2018-02-15T16:39:09.602Z,99.90
2018-02-15T16:41:37.861Z,99.90
2018-02-15T16:44:06.157Z,99.90
2018-02-15T16:46:34.481Z,99.90
2018-02-15T16:49:02.791Z,99.90
2018-02-15T16:51:31.057Z,99.90
2018-02-15T16:53:59.328Z,99.90
2018-02-15T16:56:27.594Z,99.90
2018-02-15T16:58:55.848Z,99.90
2018-02-15T17:01:24.151Z,99.90
2018-02-15T17:03:52.457Z,99.90
2018-02-15T17:06:20.709Z,99.90
2018-02-15T17:08:48.985Z,99.90
2018-02-15T17:11:17.203Z,99.90
2018-02-15T17:13:45.544Z,99.90
2018-02-15T17:16:13.794Z,99.90
2018-02-15T17:18:42.842Z,99.90
2018-02-15T17:21:11.145Z,99.90
2018-02-15T17:23:40.894Z,99.90
2018-02-15T17:26:09.326Z,99.90
2018-02-15T17:28:37.550Z,99.90
2018-02-15T17:31:05.807Z,99.90
2018-02-15T17:33:34.096Z,99.90
2018-02-15T17:36:02.491Z,99.90
2018-02-15T17:38:31.497Z,99.90
2018-02-15T17:40:59.817Z,99.90
2018-02-15T17:43:28.382Z,99.90
2018-02-15T17:45:56.659Z,99.90
2018-02-15T17:48:24.914Z,99.90
2018-02-15T17:50:53.248Z,99.90
2018-02-15T17:53:22.390Z,99.90
2018-02-15T17:55:50.773Z,99.90
2018-02-15T17:58:19.286Z,99.90
2018-02-15T18:00:47.526Z,99.90
2018-02-15T18:03:15.840Z,99.90
2018-02-15T18:05:44.145Z,99.90
2018-02-15T18:08:13.213Z,99.90
2018-02-15T18:10:41.501Z,99.90
2018-02-15T18:13:09.834Z,99.90
2018-02-15T18:15:38.162Z,99.90
2018-02-15T18:18:07.208Z,99.90
2018-02-15T18:20:36.460Z,99.90
2018-02-15T18:23:04.732Z,99.90
2018-02-15T18:25:33.052Z,99.90
2018-02-15T18:28:01.387Z,99.90
2018-02-15T18:30:29.727Z,99.90
2018-02-15T18:32:57.992Z,99.90
2018-02-15T18:35:26.298Z,99.90
2018-02-15T18:37:54.574Z,99.90
2018-02-15T18:40:22.947Z,99.90
2018-02-15T18:42:51.285Z,99.90
2018-02-15T18:45:19.655Z,99.90
2018-02-15T18:47:49.467Z,99.90
2018-02-15T18:50:17.750Z,99.90
2018-02-15T18:52:46.864Z,99.90
2018-02-15T18:55:15.989Z,99.90
2018-02-15T18:57:44.348Z,99.90
2018-02-15T19:00:13.392Z,99.90
2018-02-15T19:02:41.667Z,99.90
2018-02-15T19:05:09.965Z,99.90
2018-02-15T19:07:39.736Z,99.90
2018-02-15T19:10:08.019Z,99.90
2018-02-15T19:12:36.303Z,99.90
2018-02-15T19:15:06.546Z,99.90
2018-02-15T19:17:34.902Z,99.90
2018-02-15T19:20:03.221Z,99.90
2018-02-15T19:22:31.514Z,99.90
2018-02-15T19:24:59.793Z,99.90
2018-02-15T19:27:28.821Z,99.90
2018-02-15T19:29:57.115Z,99.90
2018-02-15T19:32:26.431Z,99.90
2018-02-15T19:34:55.587Z,99.90
2018-02-15T19:37:23.874Z,99.90
2018-02-15T19:39:52.188Z,99.90
2018-02-15T19:42:21.996Z,99.90
2018-02-15T19:44:51.654Z,99.90
2018-02-15T19:47:20.714Z,99.90
2018-02-15T19:49:49.393Z,99.90
2018-02-15T19:52:17.675Z,99.90
2018-02-15T19:54:46.028Z,99.90
2018-02-15T19:57:14.343Z,99.90
2018-02-15T19:59:42.647Z,99.90
2018-02-15T20:02:10.988Z,99.90
2018-02-15T20:04:39.481Z,99.90
2018-02-15T20:07:07.837Z,99.90
2018-02-15T20:09:36.202Z,99.90
2018-02-15T20:12:05.301Z,99.90
2018-02-15T20:14:33.569Z,99.90
2018-02-15T20:17:02.437Z,99.90
2018-02-15T20:19:30.738Z,99.90
2018-02-15T20:21:59.132Z,99.90
2018-02-15T20:24:27.553Z,99.90
2018-02-15T20:27:03.164Z,99.90
2018-02-15T20:29:31.488Z,99.90
2018-02-15T20:32:00.670Z,99.90
2018-02-15T20:34:29.875Z,99.90
2018-02-15T20:36:59.978Z,99.90
2018-02-15T20:39:34.846Z,99.90
2018-02-15T20:42:03.255Z,99.90
2018-02-15T20:44:31.587Z,99.90
2018-02-15T20:46:59.934Z,99.90
2018-02-15T20:49:34.263Z,99.90
2018-02-15T20:52:08.374Z,99.90
2018-02-15T20:54:42.460Z,99.90
2018-02-15T20:57:10.751Z,99.90
2018-02-15T20:59:39.151Z,99.90
2018-02-15T21:02:08.228Z,99.90
2018-02-15T21:04:37.004Z,99.90
2018-02-15T21:07:05.728Z,99.90
2018-02-15T21:09:33.990Z,99.90
2018-02-15T21:12:02.286Z,99.90
2018-02-15T21:14:30.569Z,99.90
2018-02-15T21:17:00.371Z,99.90
2018-02-15T21:19:28.640Z,99.90
2018-02-15T21:21:56.892Z,99.90
2018-02-15T21:24:25.186Z,99.90
2018-02-15T21:26:53.453Z,99.90
2018-02-15T21:29:22.356Z,99.90
2018-02-15T21:31:51.389Z,99.90
2018-02-15T21:34:19.696Z,99.90
2018-02-15T21:36:47.979Z,99.90
2018-02-15T21:39:16.248Z,99.90
2018-02-15T21:41:44.506Z,99.90
2018-02-15T21:44:12.814Z,99.90
2018-02-15T21:46:41.085Z,99.90
2018-02-15T21:49:09.371Z,99.90
2018-02-15T21:51:37.629Z,99.90
2018-02-15T21:54:05.935Z,99.90
2018-02-15T21:56:34.214Z,99.90
2018-02-15T21:59:02.456Z,99.90
2018-02-15T22:01:30.746Z,99.90
2018-02-15T22:03:59.048Z,99.90
2018-02-15T22:06:27.311Z,99.90
2018-02-15T22:08:55.558Z,99.90
2018-02-15T22:11:24.606Z,99.90
2018-02-15T22:13:52.907Z,99.90
2018-02-15T22:16:21.911Z,99.90
2018-02-15T22:18:50.944Z,99.90
2018-02-15T22:21:19.631Z,99.90
2018-02-15T22:23:47.917Z,99.90
2018-02-15T22:26:16.187Z,99.90
2018-02-15T22:28:44.438Z,99.90
2018-02-15T22:31:13.482Z,99.90
2018-02-15T22:33:41.737Z,99.90
2018-02-15T22:36:10.003Z,99.90
2018-02-15T22:38:38.267Z,99.90
2018-02-15T22:41:06.562Z,99.90
2018-02-15T22:43:34.848Z,99.90
2018-02-15T22:46:03.148Z,99.90
2018-02-15T22:48:31.415Z,99.90
2018-02-15T22:50:59.666Z,99.90
2018-02-15T22:53:27.936Z,99.90
2018-02-15T22:55:56.195Z,99.90
2018-02-15T22:58:25.226Z,99.90
2018-02-15T23:00:53.459Z,99.90
2018-02-15T23:03:21.767Z,99.90
2018-02-15T23:05:50.788Z,99.90
2018-02-15T23:08:19.067Z,99.90
2018-02-15T23:10:47.455Z,99.90
2018-02-15T23:13:15.706Z,99.90
2018-02-15T23:15:43.964Z,99.90
2018-02-15T23:18:12.253Z,99.90
2018-02-15T23:20:40.552Z,99.90
2018-02-15T23:23:08.808Z,99.90
2018-02-15T23:25:37.052Z,99.90
2018-02-15T23:28:06.814Z,99.90
2018-02-15T23:30:35.071Z,99.90
2018-02-15T23:33:03.317Z,99.90
2018-02-15T23:35:31.575Z,99.90
2018-02-15T23:37:59.820Z,99.90
2018-02-15T23:40:28.064Z,99.90
2018-02-15T23:42:56.329Z,99.90
2018-02-15T23:45:26.085Z,99.90
2018-02-15T23:47:54.334Z,99.90
2018-02-15T23:50:22.636Z,99.90
2018-02-15T23:52:50.890Z,99.90
2018-02-15T23:55:19.952Z,99.90
2018-02-15T23:57:48.253Z,99.90
